createdAt,value
2019-05-16T00:03:27.979Z,99639.27
2019-05-16T00:07:35.497Z,99628.64
2019-05-16T00:11:43.853Z,99630.13
2019-05-16T00:15:52.120Z,99615.61
2019-05-16T00:20:00.693Z,99612.05
2019-05-16T00:24:08.664Z,99619.31
2019-05-16T00:28:18.143Z,99628.53
2019-05-16T00:32:28.170Z,99623.23
2019-05-16T00:36:38.164Z,99630.31
2019-05-16T00:40:45.862Z,99626.45
2019-05-16T00:44:53.661Z,99620.70
2019-05-16T00:49:01.925Z,99601.95
2019-05-16T00:53:10.305Z,99606.66
2019-05-16T00:57:18.915Z,99612.34
2019-05-16T01:01:28.263Z,99608.05
2019-05-16T01:05:38.748Z,99606.05
2019-05-16T01:09:45.838Z,99591.47
2019-05-16T01:13:54.311Z,99578.62
2019-05-16T01:18:02.070Z,99574.10
2019-05-16T01:22:09.911Z,99577.31
2019-05-16T01:26:18.696Z,99587.09
2019-05-16T01:30:28.667Z,99601.48
2019-05-16T01:34:37.818Z,99594.44
2019-05-16T01:38:48.099Z,99593.69
2019-05-16T01:42:57.775Z,99602.81
2019-05-16T01:47:05.357Z,99608.93
2019-05-16T01:51:13.803Z,99613.88
2019-05-16T01:55:21.484Z,99603.36
2019-05-16T01:59:29.658Z,99582.35
2019-05-16T02:03:38.737Z,99586.90
2019-05-16T02:07:48.016Z,99608.81
2019-05-16T02:11:58.761Z,99611.43
2019-05-16T02:16:08.239Z,99605.17
2019-05-16T02:20:17.972Z,99596.84
2019-05-16T02:24:28.347Z,99581.92
2019-05-16T02:28:40.107Z,99573.17
2019-05-16T02:32:45.714Z,99564.22
2019-05-16T02:37:11.995Z,99547.50
2019-05-16T02:41:03.651Z,99533.45
2019-05-16T02:45:13.502Z,99524.22
2019-05-16T02:49:21.751Z,99577.31
2019-05-16T02:53:31.004Z,99599.23
2019-05-16T02:57:41.447Z,99618.01
2019-05-16T03:01:52.113Z,99618.69
2019-05-16T03:06:01.460Z,99600.02
2019-05-16T03:10:11.204Z,99575.41
2019-05-16T03:14:21.260Z,99579.95
2019-05-16T03:18:31.246Z,99583.34
2019-05-16T03:22:41.226Z,99588.67
2019-05-16T03:26:51.441Z,99596.39
2019-05-16T03:31:05.073Z,99595.47
2019-05-16T03:35:14.959Z,99599.39
2019-05-16T03:39:21.241Z,99624.48
2019-05-16T03:43:31.010Z,99636.27
2019-05-16T03:47:42.239Z,99635.53
2019-05-16T03:51:50.575Z,99642.13
2019-05-16T03:56:01.572Z,99635.83
2019-05-16T04:00:11.374Z,99626.30
2019-05-16T04:04:20.649Z,99632.52
2019-05-16T04:08:30.685Z,99624.75
2019-05-16T04:12:37.297Z,99608.02
2019-05-16T04:16:45.502Z,99601.61
2019-05-16T04:20:53.647Z,99610.92
2019-05-16T04:25:02.254Z,99599.56
2019-05-16T04:29:11.932Z,99612.13
2019-05-16T04:33:21.906Z,99623.02
2019-05-16T04:37:31.371Z,99629.57
2019-05-16T04:41:40.916Z,99628.45
2019-05-16T04:45:52.129Z,99616.49
2019-05-16T04:50:01.681Z,99617.65
2019-05-16T04:54:11.478Z,99621.95
2019-05-16T04:58:22.556Z,99625.98
2019-05-16T05:02:30.769Z,99606.84
2019-05-16T05:06:40.385Z,99595.39
2019-05-16T05:10:47.162Z,99599.88
2019-05-16T05:14:55.226Z,99603.20
2019-05-16T05:19:02.846Z,99600.86
2019-05-16T05:23:11.059Z,99592.13
2019-05-16T05:27:19.764Z,99596.84
2019-05-16T05:31:34.414Z,99602.80
2019-05-16T05:35:40.702Z,99583.88
2019-05-16T05:39:47.536Z,99588.56
2019-05-16T05:43:56.231Z,99570.57
2019-05-16T05:48:04.488Z,99568.20
2019-05-16T05:52:12.864Z,99562.02
2019-05-16T05:56:21.053Z,99560.86
2019-05-16T06:00:30.345Z,99553.88
2019-05-16T06:04:39.592Z,99546.00
2019-05-16T06:08:50.009Z,99546.79
2019-05-16T06:12:57.061Z,99541.06
2019-05-16T06:17:05.392Z,99542.64
2019-05-16T06:21:13.797Z,99541.51
2019-05-16T06:25:22.885Z,99562.66
2019-05-16T06:29:31.365Z,99577.36
2019-05-16T06:33:41.127Z,99580.00
2019-05-16T06:37:49.943Z,99600.07
2019-05-16T06:42:00.413Z,99596.39
2019-05-16T06:46:07.966Z,99604.91
2019-05-16T06:50:15.798Z,99608.38
2019-05-16T06:54:24.091Z,99626.34
2019-05-16T06:58:43.696Z,99623.75
2019-05-16T07:02:41.222Z,99615.58
2019-05-16T07:06:58.599Z,99602.13
2019-05-16T07:11:00.033Z,99583.12
2019-05-16T07:15:12.400Z,99577.81
2019-05-16T07:19:20.768Z,99558.57
2019-05-16T07:23:29.906Z,99555.53
2019-05-16T07:27:40.114Z,99525.16
2019-05-16T07:31:47.886Z,99428.92
2019-05-16T07:35:56.230Z,99428.92
2019-05-16T07:40:16.285Z,99431.77
2019-05-16T07:44:14.219Z,99453.50
2019-05-16T07:48:22.428Z,99422.79
2019-05-16T07:52:35.858Z,99469.96
2019-05-16T07:56:40.851Z,99500.09
2019-05-16T08:00:58.298Z,99505.73
2019-05-16T08:05:00.877Z,99541.22
2019-05-16T08:09:12.470Z,99549.54
2019-05-16T08:13:21.284Z,99577.39
2019-05-16T08:17:31.373Z,99560.05
2019-05-16T08:21:41.167Z,99545.45
2019-05-16T08:25:50.769Z,99554.59
2019-05-16T08:30:02.106Z,99553.06
2019-05-16T08:34:11.674Z,99545.67
2019-05-16T08:38:21.118Z,99533.20
2019-05-16T08:42:27.683Z,99521.77
2019-05-16T08:46:35.900Z,99521.87
2019-05-16T08:50:50.315Z,99515.98
2019-05-16T08:54:53.569Z,99509.97
2019-05-16T08:59:03.460Z,99486.78
2019-05-16T09:03:12.299Z,99489.42
2019-05-16T09:07:22.734Z,99484.42
2019-05-16T09:11:44.921Z,99477.91
2019-05-16T09:15:41.721Z,99488.41
2019-05-16T09:19:50.296Z,99476.95
2019-05-16T09:23:58.217Z,99464.12
2019-05-16T09:28:07.436Z,99455.65
2019-05-16T09:32:27.023Z,99449.41
2019-05-16T09:36:28.100Z,99437.63
2019-05-16T09:40:38.700Z,99437.63
2019-05-16T09:44:47.561Z,99424.23
2019-05-16T09:49:13.065Z,99439.95
2019-05-16T09:53:07.247Z,99456.22
2019-05-16T09:57:17.446Z,99440.38
2019-05-16T10:01:27.627Z,99447.52
2019-05-16T10:05:37.215Z,99465.38
2019-05-16T10:09:50.024Z,99471.78
2019-05-16T10:13:56.164Z,99485.55
2019-05-16T10:18:07.355Z,99488.50
2019-05-16T10:22:17.052Z,99489.59
2019-05-16T10:26:27.715Z,99489.59
2019-05-16T10:30:34.875Z,99474.61
2019-05-16T10:34:42.900Z,99466.47
2019-05-16T10:38:51.032Z,99462.57
2019-05-16T10:42:59.244Z,99475.01
2019-05-16T10:47:07.709Z,99466.19
2019-05-16T10:51:17.102Z,99458.30
2019-05-16T10:55:27.634Z,99452.27
2019-05-16T10:59:57.730Z,99451.53
2019-05-16T11:03:44.322Z,99445.22
2019-05-16T11:07:53.476Z,99454.08
2019-05-16T11:12:01.270Z,99465.46
2019-05-16T11:16:09.516Z,99468.66
2019-05-16T11:20:20.579Z,99468.42
2019-05-16T11:24:29.727Z,99476.70
2019-05-16T11:28:37.259Z,99470.29
2019-05-16T11:32:46.981Z,99467.02
2019-05-16T11:36:57.010Z,99472.97
2019-05-16T11:41:07.220Z,99476.30
2019-05-16T11:45:16.537Z,99500.06
2019-05-16T11:49:24.585Z,99500.35
2019-05-16T11:53:32.259Z,99501.45
2019-05-16T11:57:39.971Z,99501.27
2019-05-16T12:01:48.005Z,99507.53
2019-05-16T12:05:58.015Z,99503.13
2019-05-16T12:10:07.619Z,99504.09
2019-05-16T12:14:16.598Z,99504.75
2019-05-16T12:18:26.582Z,99515.54
2019-05-16T12:22:37.487Z,99519.95
2019-05-16T12:26:44.240Z,99515.69
2019-05-16T12:30:52.318Z,99508.30
2019-05-16T12:35:00.233Z,99510.78
2019-05-16T12:39:09.157Z,99506.03
2019-05-16T12:43:18.204Z,99504.37
2019-05-16T12:47:26.348Z,99505.36
2019-05-16T12:51:36.927Z,99505.36
2019-05-16T12:55:44.335Z,99513.29
2019-05-16T12:59:52.751Z,99519.34
2019-05-16T13:04:00.769Z,99519.34
2019-05-16T13:08:08.421Z,99526.25
2019-05-16T13:12:17.540Z,99521.71
2019-05-16T13:16:28.080Z,99522.53
2019-05-16T13:20:39.228Z,99523.08
2019-05-16T13:24:47.925Z,99524.41
2019-05-16T13:28:57.839Z,99542.63
2019-05-16T13:33:07.001Z,99547.66
2019-05-16T13:37:17.612Z,99541.64
2019-05-16T13:41:26.838Z,99536.58
2019-05-16T13:45:33.883Z,99530.97
2019-05-16T13:49:41.818Z,99533.67
2019-05-16T13:53:49.530Z,99517.19
2019-05-16T13:57:57.654Z,99511.42
2019-05-16T14:02:07.792Z,99513.89
2019-05-16T14:06:18.051Z,99508.15
2019-05-16T14:10:29.785Z,99520.27
2019-05-16T14:14:41.908Z,99525.33
2019-05-16T14:18:47.025Z,99535.27
2019-05-16T14:22:57.166Z,99528.58
2019-05-16T14:27:06.464Z,99532.84
2019-05-16T14:31:14.310Z,99528.05
2019-05-16T14:35:21.999Z,99519.98
2019-05-16T14:39:29.881Z,99525.93
2019-05-16T14:43:37.885Z,99529.47
2019-05-16T14:47:47.586Z,99535.88
2019-05-16T14:51:57.870Z,99536.84
2019-05-16T14:56:07.029Z,99548.84
2019-05-16T15:00:18.300Z,99546.20
2019-05-16T15:04:29.824Z,99545.72
2019-05-16T15:08:34.905Z,99540.34
2019-05-16T15:12:42.890Z,99561.31
2019-05-16T15:16:51.994Z,99563.81
2019-05-16T15:20:59.662Z,99570.02
2019-05-16T15:25:08.520Z,99571.52
2019-05-16T15:29:17.592Z,99572.66
2019-05-16T15:33:27.326Z,99559.18
2019-05-16T15:37:37.274Z,99554.81
2019-05-16T15:41:45.284Z,99559.36
2019-05-16T15:45:53.504Z,99549.41
2019-05-16T15:50:01.488Z,99555.66
2019-05-16T15:54:09.376Z,99553.20
2019-05-16T15:58:18.369Z,99544.45
2019-05-16T16:02:27.181Z,99542.60
2019-05-16T16:06:37.783Z,99539.50
2019-05-16T16:10:47.786Z,99547.09
2019-05-16T16:14:57.354Z,99555.08
2019-05-16T16:19:06.554Z,99558.80
2019-05-16T16:23:17.527Z,99559.93
2019-05-16T16:27:24.057Z,99560.67
2019-05-16T16:31:32.088Z,99561.65
2019-05-16T16:35:39.572Z,99547.73
2019-05-16T16:39:47.580Z,99544.43
2019-05-16T16:43:57.093Z,99553.95
2019-05-16T16:48:04.672Z,99560.25
2019-05-16T16:52:12.673Z,99562.00
2019-05-16T16:56:20.665Z,99569.41
2019-05-16T17:00:28.627Z,99568.51
2019-05-16T17:04:38.870Z,99575.67
2019-05-16T17:08:47.455Z,99570.55
2019-05-16T17:12:57.585Z,99559.53
2019-05-16T17:17:07.089Z,99553.00
2019-05-16T17:21:17.087Z,99552.50
2019-05-16T17:25:26.912Z,99552.50
2019-05-16T17:29:36.876Z,99556.64
2019-05-16T17:33:45.207Z,99547.03
2019-05-16T17:37:52.803Z,99546.95
2019-05-16T17:42:01.624Z,99540.45
2019-05-16T17:46:09.847Z,99551.45
2019-05-16T17:50:18.674Z,99554.58
2019-05-16T17:54:26.796Z,99573.52
2019-05-16T17:58:35.223Z,99573.52
2019-05-16T18:02:43.473Z,99575.86
2019-05-16T18:06:51.501Z,99565.20
2019-05-16T18:10:59.551Z,99565.20
2019-05-16T18:15:08.503Z,99570.91
2019-05-16T18:19:17.371Z,99570.91
2019-05-16T18:23:27.484Z,99579.58
2019-05-16T18:27:37.419Z,99579.83
2019-05-16T18:31:47.124Z,99577.80
2019-05-16T18:35:57.808Z,99582.65
2019-05-16T18:40:07.266Z,99592.28
2019-05-16T18:44:16.695Z,99584.06
2019-05-16T18:48:27.015Z,99582.52
2019-05-16T18:52:37.252Z,99593.36
2019-05-16T18:56:43.967Z,99591.73
2019-05-16T19:00:52.745Z,99594.69
2019-05-16T19:05:00.891Z,99610.45
2019-05-16T19:09:08.972Z,99626.23
2019-05-16T19:13:17.219Z,99617.17
2019-05-16T19:17:27.498Z,99617.92
2019-05-16T19:21:36.839Z,99629.53
2019-05-16T19:25:47.385Z,99633.19
2019-05-16T19:29:56.823Z,99636.62
2019-05-16T19:34:06.998Z,99639.45
2019-05-16T19:38:16.916Z,99641.16
2019-05-16T19:42:26.664Z,99637.50
2019-05-16T19:46:35.461Z,99630.41
2019-05-16T19:50:46.237Z,99630.30
2019-05-16T19:54:53.627Z,99627.44
2019-05-16T19:59:02.170Z,99631.75
2019-05-16T20:03:12.931Z,99624.27
2019-05-16T20:07:20.674Z,99625.08
2019-05-16T20:11:28.656Z,99631.36
2019-05-16T20:15:37.229Z,99613.07
2019-05-16T20:19:46.971Z,99612.69
2019-05-16T20:23:56.769Z,99606.02
2019-05-16T20:28:08.578Z,99595.63
2019-05-16T20:32:16.706Z,99596.86
2019-05-16T20:36:26.316Z,99593.70
2019-05-16T20:40:33.166Z,99590.17
2019-05-16T20:44:41.588Z,99578.67
2019-05-16T20:48:49.501Z,99576.76
2019-05-16T20:52:59.109Z,99569.23
2019-05-16T20:57:07.263Z,99576.63
2019-05-16T21:01:17.297Z,99573.61
2019-05-16T21:05:26.840Z,99574.97
2019-05-16T21:09:36.894Z,99561.70
2019-05-16T21:13:46.911Z,99560.02
2019-05-16T21:17:56.747Z,99559.93
2019-05-16T21:22:07.142Z,99550.13
2019-05-16T21:26:14.877Z,99549.95
2019-05-16T21:30:23.762Z,99558.30
2019-05-16T21:34:31.827Z,99541.71
2019-05-16T21:38:40.302Z,99549.19
2019-05-16T21:42:48.144Z,99545.43
2019-05-16T21:46:56.498Z,99547.05
2019-05-16T21:51:07.842Z,99532.77
2019-05-16T21:55:17.505Z,99535.23
2019-05-16T21:59:28.497Z,99523.19
2019-05-16T22:03:36.727Z,99523.84
2019-05-16T22:07:47.169Z,99531.33
2019-05-16T22:11:57.377Z,99529.48
2019-05-16T22:16:08.070Z,99524.97
2019-05-16T22:20:16.817Z,99521.56
2019-05-16T22:24:26.501Z,99521.84
2019-05-16T22:28:34.713Z,99517.23
2019-05-16T22:32:47.029Z,99520.41
2019-05-16T22:36:57.301Z,99519.63
2019-05-16T22:41:06.985Z,99524.14
2019-05-16T22:45:17.614Z,99525.27
2019-05-16T22:49:27.513Z,99531.50
2019-05-16T22:53:36.875Z,99530.48
2019-05-16T22:57:47.268Z,99527.92
2019-05-16T23:01:56.966Z,99534.18
2019-05-16T23:06:07.573Z,99535.78
2019-05-16T23:10:16.655Z,99524.97
2019-05-16T23:14:26.392Z,99524.57
2019-05-16T23:18:34.571Z,99506.05
2019-05-16T23:22:42.073Z,99503.39
2019-05-16T23:26:49.789Z,99508.14
2019-05-16T23:30:57.982Z,99501.25
2019-05-16T23:35:06.869Z,99502.88
2019-05-16T23:39:14.666Z,99510.91
2019-05-16T23:43:22.658Z,99515.42
2019-05-16T23:47:30.238Z,99509.72
2019-05-16T23:51:38.616Z,99516.77
2019-05-16T23:55:47.218Z,99507.80
2019-05-16T23:59:56.766Z,99509.88
